Imnaha, Oregon
Current Conditions -  °F | °C
As of 10:15 PM on Thursday 18 Dec 2014 (Local Time) from KGIC Reporting Station
Overcast Overcast  
Wind Chill: 36°   Ceiling: 6000
Heat Index: 42°   Visibility: 10mi
Dew Point: 31°   Wind: 10mph
Humidity: 65%   Direction: 50°NE
Pressure: 29.99"   Gusts: NA
Location:  45.56°N, 116.83°W
Report Text: KGIC 190615Z AUTO 05009KT 10SM BKN060 OVC085 06/00 A2999 RMK AO1 T00571005
Loading
Personal Weather Stations






























Interactive Weather Map New forecast layout! Learn more

10-Day Weather Forecast

Advertisements
Track Severe Weather on mobile